sensor_id;sensor_type;location;lat;lon;timestamp;pressure;altitude;pressure_sealevel;temperature;humidity
63554;BME280;49699;48.072;7.800;2023-03-01T00:01:30;100131.56;;;-2.74;75.63
63554;BME280;49699;48.072;7.800;2023-03-01T00:03:58;100128.19;;;-2.73;75.84
63554;BME280;49699;48.072;7.800;2023-03-01T00:06:24;100132.44;;;-2.73;75.54
63554;BME280;49699;48.072;7.800;2023-03-01T00:08:50;100130.72;;;-2.74;75.32
63554;BME280;49699;48.072;7.800;2023-03-01T00:13:42;100128.09;;;-2.82;75.88
63554;BME280;49699;48.072;7.800;2023-03-01T00:16:09;100128.94;;;-2.85;76.09
63554;BME280;49699;48.072;7.800;2023-03-01T00:18:34;100128.06;;;-2.85;75.84
63554;BME280;49699;48.072;7.800;2023-03-01T00:21:00;100126.38;;;-2.86;75.82
63554;BME280;49699;48.072;7.800;2023-03-01T00:23:25;100121.28;;;-2.86;76.26
63554;BME280;49699;48.072;7.800;2023-03-01T00:25:50;100114.50;;;-2.89;75.95
63554;BME280;49699;48.072;7.800;2023-03-01T00:28:16;100119.53;;;-2.93;76.04
63554;BME280;49699;48.072;7.800;2023-03-01T00:30:41;100110.16;;;-2.97;76.45
63554;BME280;49699;48.072;7.800;2023-03-01T00:33:07;100107.63;;;-2.96;76.23
63554;BME280;49699;48.072;7.800;2023-03-01T00:35:32;100116.94;;;-2.98;76.54
63554;BME280;49699;48.072;7.800;2023-03-01T00:37:58;100119.47;;;-3.01;76.64
63554;BME280;49699;48.072;7.800;2023-03-01T00:40:24;100115.22;;;-3.05;76.71
63554;BME280;49699;48.072;7.800;2023-03-01T00:42:49;100118.59;;;-3.06;76.58
63554;BME280;49699;48.072;7.800;2023-03-01T00:45:14;100109.25;;;-3.07;76.63
63554;BME280;49699;48.072;7.800;2023-03-01T00:47:40;100111.78;;;-3.08;76.59
63554;BME280;49699;48.072;7.800;2023-03-01T00:50:05;100110.09;;;-3.09;76.60
63554;BME280;49699;48.072;7.800;2023-03-01T00:52:31;100115.16;;;-3.09;76.69
63554;BME280;49699;48.072;7.800;2023-03-01T00:54:56;100112.59;;;-3.11;76.77
63554;BME280;49699;48.072;7.800;2023-03-01T00:57:23;100112.59;;;-3.11;76.69
63554;BME280;49699;48.072;7.800;2023-03-01T00:59:48;100112.63;;;-3.09;76.38
63554;BME280;49699;48.072;7.800;2023-03-01T01:02:13;100108.41;;;-3.07;76.83
63554;BME280;49699;48.072;7.800;2023-03-01T01:04:38;100106.72;;;-3.04;76.79
63554;BME280;49699;48.072;7.800;2023-03-01T01:07:04;100112.69;;;-3.00;76.63
63554;BME280;49699;48.072;7.800;2023-03-01T01:09:30;100105.91;;;-3.00;76.51
63554;BME280;49699;48.072;7.800;2023-03-01T01:11:55;100108.47;;;-2.97;76.71
63554;BME280;49699;48.072;7.800;2023-03-01T01:14:21;100104.28;;;-2.92;76.64
63554;BME280;49699;48.072;7.800;2023-03-01T01:16:47;100102.63;;;-2.87;76.45
63554;BME280;49699;48.072;7.800;2023-03-01T01:19:13;100094.13;;;-2.84;76.31
63554;BME280;49699;48.072;7.800;2023-03-01T01:21:38;100089.06;;;-2.80;76.68
63554;BME280;49699;48.072;7.800;2023-03-01T01:24:04;100081.44;;;-2.76;76.78
63554;BME280;49699;48.072;7.800;2023-03-01T01:26:32;100078.09;;;-2.72;76.52
63554;BME280;49699;48.072;7.800;2023-03-01T01:28:57;100078.09;;;-2.71;76.73
63554;BME280;49699;48.072;7.800;2023-03-01T01:31:23;100073.00;;;-2.68;77.06
63554;BME280;49699;48.072;7.800;2023-03-01T01:33:49;100061.97;;;-2.67;77.14
63554;BME280;49699;48.072;7.800;2023-03-01T01:36:14;100061.09;;;-2.67;77.05
63554;BME280;49699;48.072;7.800;2023-03-01T01:38:41;100057.69;;;-2.68;76.74
63554;BME280;49699;48.072;7.800;2023-03-01T01:41:07;100059.41;;;-2.70;76.92
63554;BME280;49699;48.072;7.800;2023-03-01T01:43:34;100058.56;;;-2.72;76.72
63554;BME280;49699;48.072;7.800;2023-03-01T01:46:01;100049.19;;;-2.73;76.85
63554;BME280;49699;48.072;7.800;2023-03-01T01:48:38;100045.78;;;-2.75;76.93
63554;BME280;49699;48.072;7.800;2023-03-01T01:51:12;100050.03;;;-2.74;77.33
63554;BME280;49699;48.072;7.800;2023-03-01T01:53:38;100048.38;;;-2.72;77.10
63554;BME280;49699;48.072;7.800;2023-03-01T01:56:05;100048.38;;;-2.69;77.11
63554;BME280;49699;48.072;7.800;2023-03-01T01:58:32;100038.19;;;-2.66;77.18
63554;BME280;49699;48.072;7.800;2023-03-01T02:00:57;100046.69;;;-2.62;76.81
63554;BME280;49699;48.072;7.800;2023-03-01T02:03:24;100048.41;;;-2.60;76.81
63554;BME280;49699;48.072;7.800;2023-03-01T02:05:59;100051.81;;;-2.58;76.81
63554;BME280;49699;48.072;7.800;2023-03-01T02:08:27;100042.50;;;-2.57;76.94
63554;BME280;49699;48.072;7.800;2023-03-01T02:10:55;100043.34;;;-2.57;76.85
63554;BME280;49699;48.072;7.800;2023-03-01T02:13:21;100045.88;;;-2.58;77.05
63554;BME280;49699;48.072;7.800;2023-03-01T02:15:46;100035.69;;;-2.60;76.98
63554;BME280;49699;48.072;7.800;2023-03-01T02:18:13;100034.81;;;-2.62;76.99
63554;BME280;49699;48.072;7.800;2023-03-01T02:23:11;100030.53;;;-2.66;77.17
63554;BME280;49699;48.072;7.800;2023-03-01T02:25:40;100025.44;;;-2.66;77.42
63554;BME280;49699;48.072;7.800;2023-03-01T02:30:36;100038.16;;;-2.67;77.79
63554;BME280;49699;48.072;7.800;2023-03-01T02:33:03;100024.56;;;-2.68;77.77
63554;BME280;49699;48.072;7.800;2023-03-01T02:35:29;100025.44;;;-2.66;77.71
63554;BME280;49699;48.072;7.800;2023-03-01T02:37:56;100022.88;;;-2.67;77.50
63554;BME280;49699;48.072;7.800;2023-03-01T02:40:25;100016.94;;;-2.68;77.71
63554;BME280;49699;48.072;7.800;2023-03-01T02:42:53;100013.53;;;-2.71;77.87
63554;BME280;49699;48.072;7.800;2023-03-01T02:45:19;100016.94;;;-2.72;77.71
63554;BME280;49699;48.072;7.800;2023-03-01T02:47:44;100008.41;;;-2.77;77.78
63554;BME280;49699;48.072;7.800;2023-03-01T02:50:12;100018.56;;;-2.82;78.21
63554;BME280;49699;48.072;7.800;2023-03-01T02:53:01;100013.47;;;-2.87;77.98
63554;BME280;49699;48.072;7.800;2023-03-01T02:55:29;100019.38;;;-2.91;78.26
63554;BME280;49699;48.072;7.800;2023-03-01T02:57:55;100011.72;;;-2.95;78.23
63554;BME280;49699;48.072;7.800;2023-03-01T03:00:23;100004.91;;;-2.98;78.31
63554;BME280;49699;48.072;7.800;2023-03-01T03:02:50;100009.97;;;-3.01;78.36
63554;BME280;49699;48.072;7.800;2023-03-01T03:05:19;100012.50;;;-3.02;78.50
63554;BME280;49699;48.072;7.800;2023-03-01T03:07:46;100004.84;;;-3.04;78.56
63554;BME280;49699;48.072;7.800;2023-03-01T03:10:17;100004.00;;;-3.04;78.70
63554;BME280;49699;48.072;7.800;2023-03-01T03:12:44;99999.78;;;-3.05;78.44
63554;BME280;49699;48.072;7.800;2023-03-01T03:15:13;100004.88;;;-3.05;78.69
63554;BME280;49699;48.072;7.800;2023-03-01T03:17:39;99994.66;;;-3.07;78.48
63554;BME280;49699;48.072;7.800;2023-03-01T03:20:05;100000.59;;;-3.08;78.65
63554;BME280;49699;48.072;7.800;2023-03-01T03:22:31;100000.59;;;-3.08;78.77
63554;BME280;49699;48.072;7.800;2023-03-01T03:24:56;99993.78;;;-3.10;78.74
63554;BME280;49699;48.072;7.800;2023-03-01T03:27:22;99994.63;;;-3.11;79.14
63554;BME280;49699;48.072;7.800;2023-03-01T03:29:47;99996.31;;;-3.13;79.12
63554;BME280;49699;48.072;7.800;2023-03-01T03:32:12;99988.69;;;-3.13;78.97
63554;BME280;49699;48.072;7.800;2023-03-01T03:34:37;99986.97;;;-3.15;79.06
63554;BME280;49699;48.072;7.800;2023-03-01T03:37:03;99982.72;;;-3.14;79.18
63554;BME280;49699;48.072;7.800;2023-03-01T03:39:28;99983.56;;;-3.15;79.30
63554;BME280;49699;48.072;7.800;2023-03-01T03:42:00;99986.97;;;-3.15;79.26
63554;BME280;49699;48.072;7.800;2023-03-01T03:44:25;99987.81;;;-3.16;79.36
63554;BME280;49699;48.072;7.800;2023-03-01T03:46:50;99989.50;;;-3.15;79.51
63554;BME280;49699;48.072;7.800;2023-03-01T03:49:15;99986.13;;;-3.15;79.45
63554;BME280;49699;48.072;7.800;2023-03-01T03:51:41;99981.88;;;-3.15;79.46
63554;BME280;49699;48.072;7.800;2023-03-01T03:54:06;99991.22;;;-3.15;79.23
63554;BME280;49699;48.072;7.800;2023-03-01T03:56:31;99980.16;;;-3.17;79.22
63554;BME280;49699;48.072;7.800;2023-03-01T03:58:57;99982.69;;;-3.19;79.30
63554;BME280;49699;48.072;7.800;2023-03-01T04:01:22;99987.78;;;-3.20;79.33
63554;BME280;49699;48.072;7.800;2023-03-01T04:03:47;99981.00;;;-3.24;79.52
63554;BME280;49699;48.072;7.800;2023-03-01T04:06:15;99973.31;;;-3.29;79.25
63554;BME280;49699;48.072;7.800;2023-03-01T04:08:41;99972.44;;;-3.31;79.19
63554;BME280;49699;48.072;7.800;2023-03-01T04:11:06;99963.06;;;-3.35;79.37
63554;BME280;49699;48.072;7.800;2023-03-01T04:13:50;99968.13;;;-3.38;79.58
63554;BME280;49699;48.072;7.800;2023-03-01T04:16:16;99967.28;;;-3.38;79.54
63554;BME280;49699;48.072;7.800;2023-03-01T04:18:41;99968.13;;;-3.39;79.72
63554;BME280;49699;48.072;7.800;2023-03-01T04:21:07;99967.28;;;-3.40;79.75
63554;BME280;49699;48.072;7.800;2023-03-01T04:23:32;99968.97;;;-3.39;79.85
63554;BME280;49699;48.072;7.800;2023-03-01T04:25:58;99957.13;;;-3.37;79.96
63554;BME280;49699;48.072;7.800;2023-03-01T04:28:25;99962.22;;;-3.35;79.93
63554;BME280;49699;48.072;7.800;2023-03-01T04:30:51;99958.00;;;-3.33;80.02
63554;BME280;49699;48.072;7.800;2023-03-01T04:33:17;99959.72;;;-3.31;80.12
63554;BME280;49699;48.072;7.800;2023-03-01T04:35:43;99951.28;;;-3.25;80.02
63554;BME280;49699;48.072;7.800;2023-03-01T04:38:08;99946.19;;;-3.19;79.91
63554;BME280;49699;48.072;7.800;2023-03-01T04:40:34;99945.38;;;-3.15;80.11
63554;BME280;49699;48.072;7.800;2023-03-01T04:42:59;99953.91;;;-3.11;80.03
63554;BME280;49699;48.072;7.800;2023-03-01T04:45:26;99949.69;;;-3.08;79.93
63554;BME280;49699;48.072;7.800;2023-03-01T04:47:52;99952.25;;;-3.05;79.78
63554;BME280;49699;48.072;7.800;2023-03-01T04:50:18;99952.25;;;-3.02;79.66
63554;BME280;49699;48.072;7.800;2023-03-01T04:52:48;99954.81;;;-2.99;79.62
63554;BME280;49699;48.072;7.800;2023-03-01T04:55:14;99951.44;;;-2.96;79.57
63554;BME280;49699;48.072;7.800;2023-03-01T04:57:39;99949.72;;;-2.96;79.35
63554;BME280;49699;48.072;7.800;2023-03-01T05:00:05;99949.75;;;-2.94;79.57
63554;BME280;49699;48.072;7.800;2023-03-01T05:02:48;99947.19;;;-2.94;79.39
63554;BME280;49699;48.072;7.800;2023-03-01T05:05:18;99948.91;;;-2.92;79.61
63554;BME280;49699;48.072;7.800;2023-03-01T05:07:44;99936.16;;;-2.93;79.50
63554;BME280;49699;48.072;7.800;2023-03-01T05:10:09;99941.25;;;-2.93;79.39
63554;BME280;49699;48.072;7.800;2023-03-01T05:12:34;99940.44;;;-2.89;79.65
63554;BME280;49699;48.072;7.800;2023-03-01T05:15:02;99939.59;;;-2.87;79.25
63554;BME280;49699;48.072;7.800;2023-03-01T05:17:32;99944.69;;;-2.84;79.43
63554;BME280;49699;48.072;7.800;2023-03-01T05:19:57;99937.91;;;-2.80;78.99
63554;BME280;49699;48.072;7.800;2023-03-01T05:22:24;99923.50;;;-2.76;79.12
63554;BME280;49699;48.072;7.800;2023-03-01T05:24:52;99931.16;;;-2.75;79.07
63554;BME280;49699;48.072;7.800;2023-03-01T05:27:19;99919.28;;;-2.73;79.02
63554;BME280;49699;48.072;7.800;2023-03-01T05:29:47;99930.31;;;-2.71;79.14
63554;BME280;49699;48.072;7.800;2023-03-01T05:32:12;99935.44;;;-2.69;79.48
63554;BME280;49699;48.072;7.800;2023-03-01T05:34:40;99919.25;;;-2.68;79.28
63554;BME280;49699;48.072;7.800;2023-03-01T05:37:06;99918.44;;;-2.64;79.18
63554;BME280;49699;48.072;7.800;2023-03-01T05:39:32;99917.59;;;-2.62;79.02
63554;BME280;49699;48.072;7.800;2023-03-01T05:41:58;99921.88;;;-2.56;79.27
63554;BME280;49699;48.072;7.800;2023-03-01T05:44:24;99918.50;;;-2.52;78.82
63554;BME280;49699;48.072;7.800;2023-03-01T05:46:50;99915.09;;;-2.51;78.77
63554;BME280;49699;48.072;7.800;2023-03-01T05:49:16;99919.31;;;-2.50;78.72
63554;BME280;49699;48.072;7.800;2023-03-01T05:51:42;99913.38;;;-2.49;78.94
63554;BME280;49699;48.072;7.800;2023-03-01T05:54:08;99920.19;;;-2.48;78.73
63554;BME280;49699;48.072;7.800;2023-03-01T05:56:33;99915.06;;;-2.50;78.81
63554;BME280;49699;48.072;7.800;2023-03-01T05:58:59;99915.09;;;-2.47;78.84
63554;BME280;49699;48.072;7.800;2023-03-01T06:01:24;99912.53;;;-2.47;78.96
63554;BME280;49699;48.072;7.800;2023-03-01T06:03:50;99906.59;;;-2.46;78.86
63554;BME280;49699;48.072;7.800;2023-03-01T06:06:15;99908.31;;;-2.45;78.97
63554;BME280;49699;48.072;7.800;2023-03-01T06:08:40;99912.56;;;-2.42;79.33
63554;BME280;49699;48.072;7.800;2023-03-01T06:11:06;99912.56;;;-2.40;78.92
63554;BME280;49699;48.072;7.800;2023-03-01T06:13:32;99918.50;;;-2.40;78.74
63554;BME280;49699;48.072;7.800;2023-03-01T06:15:57;99914.28;;;-2.36;79.12
63554;BME280;49699;48.072;7.800;2023-03-01T06:18:22;99918.53;;;-2.35;78.80
63554;BME280;49699;48.072;7.800;2023-03-01T06:20:54;99913.41;;;-2.32;79.10
63554;BME280;49699;48.072;7.800;2023-03-01T06:23:19;99915.97;;;-2.28;78.77
63554;BME280;49699;48.072;7.800;2023-03-01T06:25:45;99917.69;;;-2.25;78.79
63554;BME280;49699;48.072;7.800;2023-03-01T06:28:10;99910.91;;;-2.23;78.86
63554;BME280;49699;48.072;7.800;2023-03-01T06:30:35;99918.56;;;-2.22;78.68
63554;BME280;49699;48.072;7.800;2023-03-01T06:33:01;99918.56;;;-2.22;78.68
63554;BME280;49699;48.072;7.800;2023-03-01T06:35:28;99915.16;;;-2.19;78.69
63554;BME280;49699;48.072;7.800;2023-03-01T06:37:57;99927.91;;;-2.18;78.41
63554;BME280;49699;48.072;7.800;2023-03-01T06:40:22;99917.72;;;-2.16;78.84
63554;BME280;49699;48.072;7.800;2023-03-01T06:42:48;99921.09;;;-2.11;78.62
63554;BME280;49699;48.072;7.800;2023-03-01T06:45:14;99910.06;;;-2.10;78.49
63554;BME280;49699;48.072;7.800;2023-03-01T06:47:39;99910.91;;;-2.06;78.55
63554;BME280;49699;48.072;7.800;2023-03-01T06:50:05;99910.91;;;-2.06;78.04
63554;BME280;49699;48.072;7.800;2023-03-01T06:52:30;99910.91;;;-2.05;78.22
63554;BME280;49699;48.072;7.800;2023-03-01T06:54:56;99916.03;;;-2.02;78.24
63554;BME280;49699;48.072;7.800;2023-03-01T06:57:22;99914.31;;;-2.03;78.40
63554;BME280;49699;48.072;7.800;2023-03-01T06:59:47;99914.34;;;-1.98;78.31
63554;BME280;49699;48.072;7.800;2023-03-01T07:02:13;99914.31;;;-1.95;77.98
63554;BME280;49699;48.072;7.800;2023-03-01T07:04:38;99909.22;;;-1.92;78.07
63554;BME280;49699;48.072;7.800;2023-03-01T07:07:04;99911.78;;;-1.89;77.82
63554;BME280;49699;48.072;7.800;2023-03-01T07:09:29;99910.06;;;-1.89;77.94
63554;BME280;49699;48.072;7.800;2023-03-01T07:11:55;99907.53;;;-1.87;77.84
63554;BME280;49699;48.072;7.800;2023-03-01T07:14:21;99908.38;;;-1.84;77.82
63554;BME280;49699;48.072;7.800;2023-03-01T07:16:49;99905.84;;;-1.81;77.81
63554;BME280;49699;48.072;7.800;2023-03-01T07:19:15;99910.06;;;-1.78;77.75
63554;BME280;49699;48.072;7.800;2023-03-01T07:21:40;99900.69;;;-1.78;77.98
63554;BME280;49699;48.072;7.800;2023-03-01T07:24:06;99908.34;;;-1.75;77.71
63554;BME280;49699;48.072;7.800;2023-03-01T07:26:31;99903.25;;;-1.75;77.69
63554;BME280;49699;48.072;7.800;2023-03-01T07:28:58;99910.06;;;-1.72;77.68
63554;BME280;49699;48.072;7.800;2023-03-01T07:31:24;99906.66;;;-1.68;77.80
63554;BME280;49699;48.072;7.800;2023-03-01T07:33:49;99909.22;;;-1.65;77.52
63554;BME280;49699;48.072;7.800;2023-03-01T07:36:14;99921.13;;;-1.62;77.47
63554;BME280;49699;48.072;7.800;2023-03-01T07:38:39;99908.38;;;-1.62;77.07
63554;BME280;49699;48.072;7.800;2023-03-01T07:41:05;99899.84;;;-1.60;77.23
63554;BME280;49699;48.072;7.800;2023-03-01T07:43:31;99896.44;;;-1.57;77.21
63554;BME280;49699;48.072;7.800;2023-03-01T07:45:59;99895.59;;;-1.53;77.50
63554;BME280;49699;48.072;7.800;2023-03-01T07:48:25;99898.13;;;-1.50;77.41
63554;BME280;49699;48.072;7.800;2023-03-01T07:50:51;99893.88;;;-1.50;77.30
63554;BME280;49699;48.072;7.800;2023-03-01T07:53:16;99901.53;;;-1.48;76.95
63554;BME280;49699;48.072;7.800;2023-03-01T07:55:41;99888.75;;;-1.42;77.11
63554;BME280;49699;48.072;7.800;2023-03-01T07:58:06;99887.03;;;-1.38;77.01
63554;BME280;49699;48.072;7.800;2023-03-01T08:00:32;99887.03;;;-1.32;76.73
63554;BME280;49699;48.072;7.800;2023-03-01T08:03:00;99887.03;;;-1.29;76.54
63554;BME280;49699;48.072;7.800;2023-03-01T08:05:26;99884.47;;;-1.26;76.37
63554;BME280;49699;48.072;7.800;2023-03-01T08:07:52;99889.53;;;-1.23;76.62
63554;BME280;49699;48.072;7.800;2023-03-01T08:10:17;99888.69;;;-1.21;76.21
63554;BME280;49699;48.072;7.800;2023-03-01T08:12:42;99885.28;;;-1.11;76.04
63554;BME280;49699;48.072;7.800;2023-03-01T08:15:08;99877.56;;;-1.05;75.63
63554;BME280;49699;48.072;7.800;2023-03-01T08:17:33;99886.09;;;-1.04;75.38
63554;BME280;49699;48.072;7.800;2023-03-01T08:19:59;99888.63;;;-1.04;75.67
63554;BME280;49699;48.072;7.800;2023-03-01T08:22:24;99886.94;;;-1.03;75.23
63554;BME280;49699;48.072;7.800;2023-03-01T08:24:49;99885.22;;;-0.98;75.53
63554;BME280;49699;48.072;7.800;2023-03-01T08:27:15;99886.91;;;-0.94;75.20
63554;BME280;49699;48.072;7.800;2023-03-01T08:29:41;99880.03;;;-0.86;75.32
63554;BME280;49699;48.072;7.800;2023-03-01T08:32:06;99883.44;;;-0.80;75.12
63554;BME280;49699;48.072;7.800;2023-03-01T08:34:31;99876.63;;;-0.78;74.61
63554;BME280;49699;48.072;7.800;2023-03-01T08:36:56;99880.00;;;-0.74;75.06
63554;BME280;49699;48.072;7.800;2023-03-01T08:39:22;99868.03;;;-0.67;74.75
63554;BME280;49699;48.072;7.800;2023-03-01T08:41:47;99862.91;;;-0.64;74.71
63554;BME280;49699;48.072;7.800;2023-03-01T08:44:13;99856.94;;;-0.62;74.11
63554;BME280;49699;48.072;7.800;2023-03-01T08:46:40;99868.00;;;-0.63;74.16
63554;BME280;49699;48.072;7.800;2023-03-01T08:49:05;99863.75;;;-0.61;74.10
63554;BME280;49699;48.072;7.800;2023-03-01T08:51:32;99866.28;;;-0.58;74.13
63554;BME280;49699;48.072;7.800;2023-03-01T08:54:02;99859.47;;;-0.56;73.83
63554;BME280;49699;48.072;7.800;2023-03-01T08:56:27;99864.53;;;-0.51;73.58
63554;BME280;49699;48.072;7.800;2023-03-01T08:58:53;99859.38;;;-0.42;73.49
63554;BME280;49699;48.072;7.800;2023-03-01T09:01:18;99861.81;;;-0.27;73.03
63554;BME280;49699;48.072;7.800;2023-03-01T09:03:44;99863.44;;;-0.15;72.88
63554;BME280;49699;48.072;7.800;2023-03-01T09:06:09;99861.66;;;-0.06;72.62
63554;BME280;49699;48.072;7.800;2023-03-01T09:08:36;99864.13;;;0.05;72.70
63554;BME280;49699;48.072;7.800;2023-03-01T09:11:02;99854.66;;;0.18;72.13
63554;BME280;49699;48.072;7.800;2023-03-01T09:13:28;99858.81;;;0.26;71.65
63554;BME280;49699;48.072;7.800;2023-03-01T09:15:56;99862.19;;;0.31;71.70
63554;BME280;49699;48.072;7.800;2023-03-01T09:18:21;99851.00;;;0.40;71.37
63554;BME280;49699;48.072;7.800;2023-03-01T09:20:47;99839.03;;;0.42;70.97
63554;BME280;49699;48.072;7.800;2023-03-01T09:23:12;99845.97;;;0.34;70.99
63554;BME280;49699;48.072;7.800;2023-03-01T09:25:37;99839.16;;;0.31;71.00
63554;BME280;49699;48.072;7.800;2023-03-01T09:28:03;99839.16;;;0.30;71.28
63554;BME280;49699;48.072;7.800;2023-03-01T09:30:28;99831.47;;;0.31;71.37
63554;BME280;49699;48.072;7.800;2023-03-01T09:32:55;99828.81;;;0.39;71.48
63554;BME280;49699;48.072;7.800;2023-03-01T09:35:21;99826.19;;;0.48;71.34
63554;BME280;49699;48.072;7.800;2023-03-01T09:37:47;99826.06;;;0.56;71.35
63554;BME280;49699;48.072;7.800;2023-03-01T09:40:16;99819.13;;;0.67;71.05
63554;BME280;49699;48.072;7.800;2023-03-01T09:48:17;99832.41;;;0.99;70.05
63554;BME280;49699;48.072;7.800;2023-03-01T09:50:43;99839.09;;;1.10;70.02
63554;BME280;49699;48.072;7.800;2023-03-01T09:53:18;99839.78;;;1.25;69.35
63554;BME280;49699;48.072;7.800;2023-03-01T09:55:55;99831.13;;;1.29;69.17
63554;BME280;49699;48.072;7.800;2023-03-01T10:03:55;99839.66;;;1.33;68.64
63554;BME280;49699;48.072;7.800;2023-03-01T10:06:24;99833.56;;;1.42;68.62
63554;BME280;49699;48.072;7.800;2023-03-01T10:08:54;99835.97;;;1.52;68.30
63554;BME280;49699;48.072;7.800;2023-03-01T10:11:28;99827.34;;;1.58;67.68
63554;BME280;49699;48.072;7.800;2023-03-01T10:16:28;99818.75;;;1.59;67.42
63554;BME280;49699;48.072;7.800;2023-03-01T10:18:59;99822.88;;;1.69;67.38
63554;BME280;49699;48.072;7.800;2023-03-01T10:21:25;99815.09;;;1.75;67.18
63554;BME280;49699;48.072;7.800;2023-03-01T10:23:51;99820.91;;;1.85;67.16
63554;BME280;49699;48.072;7.800;2023-03-01T10:29:03;99808.81;;;1.93;66.81
63554;BME280;49699;48.072;7.800;2023-03-01T10:34:09;99795.75;;;2.05;66.52
63554;BME280;49699;48.072;7.800;2023-03-01T10:36:35;99792.28;;;2.09;66.63
63554;BME280;49699;48.072;7.800;2023-03-01T10:39:01;99796.47;;;2.15;66.26
63554;BME280;49699;48.072;7.800;2023-03-01T10:41:31;99789.50;;;2.20;66.68
63554;BME280;49699;48.072;7.800;2023-03-01T10:43:57;99796.00;;;2.37;66.29
63554;BME280;49699;48.072;7.800;2023-03-01T10:46:23;99786.47;;;2.46;65.81
63554;BME280;49699;48.072;7.800;2023-03-01T10:51:33;99786.28;;;2.53;65.48
63554;BME280;49699;48.072;7.800;2023-03-01T10:53:58;99788.78;;;2.58;65.63
63554;BME280;49699;48.072;7.800;2023-03-01T10:56:23;99786.00;;;2.68;65.32
63554;BME280;49699;48.072;7.800;2023-03-01T10:58:57;99780.66;;;2.79;64.93
63554;BME280;49699;48.072;7.800;2023-03-01T11:01:25;99775.19;;;2.94;64.59
63554;BME280;49699;48.072;7.800;2023-03-01T11:06:28;99761.59;;;3.26;63.56
63554;BME280;49699;48.072;7.800;2023-03-01T11:08:53;99753.53;;;3.41;63.13
63554;BME280;49699;48.072;7.800;2023-03-01T11:11:23;99747.34;;;3.50;62.77
63554;BME280;49699;48.072;7.800;2023-03-01T11:13:54;99743.06;;;3.49;62.43
63554;BME280;49699;48.072;7.800;2023-03-01T11:16:31;99738.00;;;3.46;62.57
63554;BME280;49699;48.072;7.800;2023-03-01T11:19:17;99727.56;;;3.52;62.96
63554;BME280;49699;48.072;7.800;2023-03-01T11:24:09;99728.06;;;4.31;60.61
63554;BME280;49699;48.072;7.800;2023-03-01T11:26:36;99718.88;;;4.52;60.30
63554;BME280;49699;48.072;7.800;2023-03-01T11:29:04;99715.66;;;4.75;59.90
63554;BME280;49699;48.072;7.800;2023-03-01T11:31:31;99723.72;;;4.92;58.98
63554;BME280;49699;48.072;7.800;2023-03-01T11:34:03;99712.56;;;4.92;58.95
63554;BME280;49699;48.072;7.800;2023-03-01T11:41:48;99695.47;;;4.60;59.05
63554;BME280;49699;48.072;7.800;2023-03-01T11:44:18;99695.56;;;4.57;59.49
63554;BME280;49699;48.072;7.800;2023-03-01T11:51:56;99681.78;;;4.85;58.59
63554;BME280;49699;48.072;7.800;2023-03-01T12:04:45;99653.81;;;6.95;52.32
63554;BME280;49699;48.072;7.800;2023-03-01T12:10:14;99648.59;;;7.59;50.89
63554;BME280;49699;48.072;7.800;2023-03-01T12:20:17;99644.75;;;7.06;51.28
63554;BME280;49699;48.072;7.800;2023-03-01T12:25:28;99636.66;;;6.93;51.71
63554;BME280;49699;48.072;7.800;2023-03-01T12:30:42;99626.78;;;7.45;50.24
63554;BME280;49699;48.072;7.800;2023-03-01T12:33:19;99621.28;;;7.52;50.22
63554;BME280;49699;48.072;7.800;2023-03-01T12:38:32;99619.44;;;7.75;49.74
63554;BME280;49699;48.072;7.800;2023-03-01T12:43:46;99612.66;;;8.30;48.35
63554;BME280;49699;48.072;7.800;2023-03-01T12:46:25;99606.03;;;8.43;48.17
63554;BME280;49699;48.072;7.800;2023-03-01T12:51:19;99601.75;;;8.23;48.40
63554;BME280;49699;48.072;7.800;2023-03-01T12:53:49;99603.63;;;8.20;48.26
63554;BME280;49699;48.072;7.800;2023-03-01T12:56:19;99592.22;;;8.24;48.37
63554;BME280;49699;48.072;7.800;2023-03-01T12:59:09;99587.03;;;8.24;47.86
63554;BME280;49699;48.072;7.800;2023-03-01T13:06:44;99570.22;;;8.32;47.44
63554;BME280;49699;48.072;7.800;2023-03-01T13:09:58;99570.53;;;8.62;46.80
63554;BME280;49699;48.072;7.800;2023-03-01T13:11:57;99568.28;;;8.74;46.35
63554;BME280;49699;48.072;7.800;2023-03-01T13:16:48;99559.13;;;8.84;46.17
63554;BME280;49699;48.072;7.800;2023-03-01T13:19:24;99561.03;;;8.80;46.18
63554;BME280;49699;48.072;7.800;2023-03-01T13:21:50;99560.56;;;8.72;45.95
63554;BME280;49699;48.072;7.800;2023-03-01T13:24:29;99547.47;;;8.75;46.32
63554;BME280;49699;48.072;7.800;2023-03-01T13:32:18;99544.84;;;8.75;45.75
63554;BME280;49699;48.072;7.800;2023-03-01T13:34:45;99536.81;;;8.80;45.22
63554;BME280;49699;48.072;7.800;2023-03-01T13:37:18;99530.06;;;8.94;45.18
63554;BME280;49699;48.072;7.800;2023-03-01T13:39:44;99534.56;;;9.08;44.36
63554;BME280;49699;48.072;7.800;2023-03-01T13:44:53;99538.06;;;9.24;44.01
63554;BME280;49699;48.072;7.800;2023-03-01T13:47:18;99531.66;;;9.31;43.85
63554;BME280;49699;48.072;7.800;2023-03-01T13:49:46;99540.03;;;9.36;43.82
63554;BME280;49699;48.072;7.800;2023-03-01T13:54:56;99547.44;;;9.61;43.40
63554;BME280;49699;48.072;7.800;2023-03-01T13:57:26;99547.00;;;9.69;43.39
63554;BME280;49699;48.072;7.800;2023-03-01T13:59:54;99545.09;;;9.72;43.64
63554;BME280;49699;48.072;7.800;2023-03-01T14:02:19;99530.59;;;9.68;43.96
63554;BME280;49699;48.072;7.800;2023-03-01T14:04:46;99529.75;;;9.68;43.88
63554;BME280;49699;48.072;7.800;2023-03-01T14:07:21;99531.88;;;9.77;43.96
63554;BME280;49699;48.072;7.800;2023-03-01T14:09:52;99527.13;;;9.68;44.23
63554;BME280;49699;48.072;7.800;2023-03-01T14:12:22;99531.84;;;9.61;44.04
63554;BME280;49699;48.072;7.800;2023-03-01T14:15:02;99529.84;;;9.66;44.22
63554;BME280;49699;48.072;7.800;2023-03-01T14:20:20;99530.47;;;9.54;44.17
63554;BME280;49699;48.072;7.800;2023-03-01T14:22:46;99526.00;;;9.40;44.17
63554;BME280;49699;48.072;7.800;2023-03-01T14:27:43;99534.09;;;8.83;45.74
63554;BME280;49699;48.072;7.800;2023-03-01T14:30:44;99521.09;;;8.65;45.90
63554;BME280;49699;48.072;7.800;2023-03-01T14:33:02;99515.97;;;8.64;45.78
63554;BME280;49699;48.072;7.800;2023-03-01T14:35:29;99514.16;;;8.66;46.36
63554;BME280;49699;48.072;7.800;2023-03-01T14:37:54;99517.56;;;8.49;45.73
63554;BME280;49699;48.072;7.800;2023-03-01T14:40:27;99515.69;;;8.34;46.64
63554;BME280;49699;48.072;7.800;2023-03-01T14:42:53;99521.19;;;8.26;46.77